createdAt,value
2022-09-16T00:00:55.946Z,69.94
2022-09-16T00:03:23.850Z,69.70
2022-09-16T00:05:54.205Z,70.11
2022-09-16T00:08:23.175Z,69.72
2022-09-16T00:10:51.116Z,69.13
2022-09-16T00:13:19.766Z,69.55
2022-09-16T00:15:50.965Z,69.96
2022-09-16T00:18:20.303Z,69.77
2022-09-16T00:20:49.716Z,69.78
2022-09-16T00:23:19.762Z,69.99
2022-09-16T00:25:52.500Z,69.68
2022-09-16T00:28:21.690Z,70.18
2022-09-16T00:30:49.794Z,70.16
2022-09-16T00:33:18.082Z,70.31
2022-09-16T00:35:45.827Z,70.08
2022-09-16T00:38:13.592Z,70.74
2022-09-16T00:40:47.043Z,71.43
2022-09-16T00:43:15.624Z,71.45
2022-09-16T00:45:45.568Z,71.33
2022-09-16T00:48:17.988Z,71.22
2022-09-16T00:50:49.346Z,71.09
2022-09-16T00:53:21.108Z,70.73
2022-09-16T00:55:51.881Z,70.99
2022-09-16T00:58:24.084Z,71.19
2022-09-16T01:00:52.187Z,71.23
2022-09-16T01:03:20.914Z,71.35
2022-09-16T01:05:50.110Z,71.47
2022-09-16T01:08:18.118Z,71.79
2022-09-16T01:10:45.785Z,71.50
2022-09-16T01:13:17.074Z,71.64
2022-09-16T01:15:52.307Z,71.61
2022-09-16T01:18:27.640Z,72.31
2022-09-16T01:21:23.563Z,71.81
2022-09-16T01:24:15.345Z,71.12
2022-09-16T01:27:15.688Z,71.47
2022-09-16T01:30:18.881Z,71.20
2022-09-16T01:33:04.971Z,71.58
2022-09-16T01:35:50.539Z,72.49
2022-09-16T01:38:34.424Z,72.56
2022-09-16T01:41:10.305Z,72.52
2022-09-16T01:43:50.861Z,72.42
2022-09-16T01:46:25.787Z,72.24
2022-09-16T01:49:02.073Z,72.39
2022-09-16T01:51:34.542Z,72.37
2022-09-16T01:54:09.357Z,73.25
2022-09-16T01:56:43.913Z,73.25
2022-09-16T01:59:16.289Z,73.31
2022-09-16T02:01:50.707Z,73.54
2022-09-16T02:04:24.825Z,73.64
2022-09-16T02:06:55.135Z,73.35
2022-09-16T02:09:28.026Z,72.51
2022-09-16T02:12:05.414Z,72.16
2022-09-16T02:14:37.147Z,72.09
2022-09-16T02:17:09.289Z,71.90
2022-09-16T02:19:42.973Z,71.42
2022-09-16T02:22:17.036Z,71.37
2022-09-16T02:24:47.740Z,71.18
2022-09-16T02:27:18.926Z,70.77
2022-09-16T02:29:51.575Z,70.58
2022-09-16T02:32:21.586Z,70.71
2022-09-16T02:34:54.439Z,70.35
2022-09-16T02:37:28.180Z,70.50
2022-09-16T02:40:02.198Z,71.06
2022-09-16T02:42:30.554Z,71.18
2022-09-16T02:44:59.312Z,71.17
2022-09-16T02:47:33.022Z,71.12
2022-09-16T02:50:09.027Z,71.63
2022-09-16T02:52:44.668Z,71.44
2022-09-16T02:55:21.679Z,72.15
2022-09-16T02:57:50.576Z,72.34
2022-09-16T03:00:18.342Z,72.38
2022-09-16T03:02:46.154Z,72.32
2022-09-16T03:08:06.597Z,72.49
2022-09-16T03:10:42.631Z,72.02
2022-09-16T03:13:14.390Z,71.56
2022-09-16T03:15:51.351Z,71.85
2022-09-16T03:18:32.095Z,71.92
2022-09-16T03:21:05.355Z,72.46
2022-09-16T03:23:44.035Z,72.80
2022-09-16T03:32:40.113Z,72.89
2022-09-16T03:35:11.505Z,72.70
2022-09-16T03:37:40.189Z,72.69
2022-09-16T03:40:11.021Z,72.60
2022-09-16T03:42:39.130Z,72.07
2022-09-16T03:45:07.875Z,71.95
2022-09-16T03:47:37.008Z,71.83
2022-09-16T03:50:05.170Z,72.19
2022-09-16T03:52:32.756Z,72.40
2022-09-16T03:55:00.365Z,72.62
2022-09-16T03:57:30.278Z,72.48
2022-09-16T03:59:57.893Z,72.13
2022-09-16T04:02:25.715Z,71.53
2022-09-16T04:04:54.745Z,71.69
2022-09-16T04:07:22.322Z,72.12
2022-09-16T04:09:49.992Z,71.99
2022-09-16T04:12:17.652Z,72.82
2022-09-16T04:14:45.225Z,73.37
2022-09-16T04:17:12.950Z,73.32
2022-09-16T04:19:40.561Z,73.28
2022-09-16T04:22:09.595Z,73.22
2022-09-16T04:24:37.295Z,73.54
2022-09-16T04:27:05.263Z,73.52
2022-09-16T04:29:33.242Z,73.88
2022-09-16T04:32:00.853Z,74.14
2022-09-16T04:34:28.410Z,74.53
2022-09-16T04:36:55.959Z,74.48
2022-09-16T04:39:25.355Z,74.60
2022-09-16T04:41:52.963Z,74.36
2022-09-16T04:44:20.551Z,74.36
2022-09-16T04:46:48.267Z,73.82
2022-09-16T04:49:15.834Z,74.22
2022-09-16T04:51:43.635Z,74.44
2022-09-16T04:54:11.757Z,74.54
2022-09-16T04:56:40.658Z,74.78
2022-09-16T04:59:08.320Z,74.85
2022-09-16T05:01:38.488Z,74.77
2022-09-16T05:04:07.977Z,75.22
2022-09-16T05:06:37.263Z,74.84
2022-09-16T05:09:05.033Z,74.32
2022-09-16T05:11:34.437Z,73.81
2022-09-16T05:14:05.370Z,74.07
2022-09-16T05:16:33.832Z,73.89
2022-09-16T05:19:04.652Z,73.82
2022-09-16T05:21:34.717Z,74.06
2022-09-16T05:24:03.716Z,73.98
2022-09-16T05:26:35.196Z,73.43
2022-09-16T05:29:06.734Z,73.18
2022-09-16T05:31:36.233Z,72.82
2022-09-16T05:34:05.974Z,72.24
2022-09-16T05:36:35.972Z,71.85
2022-09-16T05:41:55.180Z,71.31
2022-09-16T05:44:24.453Z,71.56
2022-09-16T05:46:52.102Z,71.34
2022-09-16T05:49:21.158Z,70.83
2022-09-16T05:51:49.791Z,71.13
2022-09-16T05:54:18.526Z,70.63
2022-09-16T05:56:46.882Z,70.60
2022-09-16T05:59:16.020Z,70.73
2022-09-16T06:01:45.714Z,70.89
2022-09-16T06:04:14.846Z,70.07
2022-09-16T06:06:44.069Z,70.68
2022-09-16T06:09:15.023Z,69.59
2022-09-16T06:11:44.668Z,69.34
2022-09-16T06:14:13.996Z,69.47
2022-09-16T06:16:42.367Z,70.63
2022-09-16T06:19:14.055Z,71.08
2022-09-16T06:21:43.676Z,70.64
2022-09-16T06:24:12.289Z,70.74
2022-09-16T06:26:42.166Z,70.29
2022-09-16T06:29:11.117Z,69.98
2022-09-16T06:31:39.335Z,70.39
2022-09-16T06:34:08.077Z,70.74
2022-09-16T06:36:42.731Z,70.53
2022-09-16T06:39:13.109Z,70.22
2022-09-16T06:41:40.735Z,70.79
2022-09-16T06:44:08.597Z,71.36
2022-09-16T06:46:36.366Z,72.09
2022-09-16T06:49:06.108Z,71.48
2022-09-16T06:51:34.901Z,70.53
2022-09-16T06:54:05.617Z,70.18
2022-09-16T06:56:34.040Z,69.88
2022-09-16T06:59:01.667Z,70.04
2022-09-16T07:01:31.014Z,70.11
2022-09-16T07:03:59.912Z,69.04
2022-09-16T07:06:57.482Z,69.57
2022-09-16T07:09:19.343Z,69.23
2022-09-16T07:11:46.931Z,69.56
2022-09-16T07:14:14.999Z,70.49
2022-09-16T07:16:42.691Z,70.38
2022-09-16T07:19:10.841Z,70.15
2022-09-16T07:21:38.438Z,69.79
2022-09-16T07:24:06.391Z,69.86
2022-09-16T07:26:37.691Z,68.56
2022-09-16T07:29:07.811Z,68.48
2022-09-16T07:31:36.979Z,68.96
2022-09-16T07:34:06.369Z,68.88
2022-09-16T07:36:36.884Z,68.94
2022-09-16T07:39:05.146Z,69.34
2022-09-16T07:41:36.286Z,69.06
2022-09-16T07:44:05.384Z,68.71
2022-09-16T07:46:35.699Z,68.88
2022-09-16T07:49:05.368Z,68.14
2022-09-16T07:51:33.421Z,68.77
2022-09-16T07:54:03.888Z,68.44
2022-09-16T07:56:34.611Z,69.14
2022-09-16T07:59:06.599Z,69.54
2022-09-16T08:01:34.784Z,68.97
2022-09-16T08:04:04.451Z,68.58
2022-09-16T08:06:33.896Z,68.32
2022-09-16T08:09:10.532Z,68.57
2022-09-16T08:11:50.116Z,67.86
2022-09-16T08:14:19.057Z,68.53
2022-09-16T08:16:46.767Z,67.88
2022-09-16T08:19:14.617Z,67.85
2022-09-16T08:21:42.231Z,68.22
2022-09-16T08:24:11.033Z,68.12
2022-09-16T08:26:38.860Z,68.68
2022-09-16T08:29:09.662Z,68.19
2022-09-16T08:31:39.533Z,68.12
2022-09-16T08:34:07.411Z,68.10
2022-09-16T08:36:35.130Z,68.35
2022-09-16T08:39:03.174Z,67.82
2022-09-16T08:41:43.024Z,67.69
2022-09-16T08:44:20.966Z,67.75
2022-09-16T08:46:53.416Z,68.12
2022-09-16T08:49:30.536Z,67.96
2022-09-16T08:52:00.543Z,68.36
2022-09-16T08:54:32.605Z,68.23
2022-09-16T08:57:03.728Z,68.41
2022-09-16T08:59:36.850Z,68.79
2022-09-16T09:02:29.866Z,68.47
2022-09-16T09:04:58.228Z,68.89
2022-09-16T09:07:35.942Z,68.59
2022-09-16T09:10:12.010Z,68.71
2022-09-16T09:12:44.031Z,68.48
2022-09-16T09:15:35.381Z,68.29
2022-09-16T09:18:17.259Z,68.41
2022-09-16T09:20:55.284Z,68.85
2022-09-16T09:23:39.306Z,69.28
2022-09-16T09:26:14.743Z,69.64
2022-09-16T09:29:09.179Z,69.75
2022-09-16T09:34:34.954Z,70.54
2022-09-16T09:37:20.399Z,70.58
2022-09-16T09:40:01.695Z,70.52
2022-09-16T09:42:32.784Z,70.73
2022-09-16T09:45:04.772Z,71.39
2022-09-16T09:47:38.074Z,71.22
2022-09-16T09:50:18.550Z,71.72
2022-09-16T09:52:53.607Z,71.51
2022-09-16T09:55:24.739Z,71.36
2022-09-16T09:58:07.486Z,71.35
2022-09-16T10:00:35.206Z,71.58
2022-09-16T10:03:07.826Z,72.31
2022-09-16T10:05:36.808Z,71.83
2022-09-16T10:08:16.429Z,72.61
2022-09-16T10:10:50.279Z,72.35
2022-09-16T10:13:19.477Z,72.53
2022-09-16T10:15:51.954Z,71.94
2022-09-16T10:18:27.157Z,72.32
2022-09-16T10:21:08.127Z,72.35
2022-09-16T10:23:39.262Z,73.16
2022-09-16T10:26:20.337Z,73.68
2022-09-16T10:28:56.332Z,73.63
2022-09-16T10:31:25.254Z,73.16
2022-09-16T10:33:53.941Z,73.58
2022-09-16T10:36:26.263Z,73.74
2022-09-16T10:39:00.909Z,73.58
2022-09-16T10:41:36.100Z,73.69
2022-09-16T10:44:08.325Z,74.53
2022-09-16T10:46:36.174Z,74.26
2022-09-16T10:49:13.228Z,74.75
2022-09-16T10:51:42.284Z,75.36
2022-09-16T10:54:25.609Z,75.62
2022-09-16T10:56:53.399Z,74.96
2022-09-16T10:59:21.396Z,73.48
2022-09-16T11:01:59.379Z,71.78
2022-09-16T11:04:46.470Z,71.75
2022-09-16T11:07:28.359Z,71.88
2022-09-16T11:10:05.991Z,72.17
2022-09-16T11:12:53.331Z,71.44
2022-09-16T11:15:33.170Z,71.84
2022-09-16T11:18:19.408Z,71.55
2022-09-16T11:21:00.081Z,72.07
2022-09-16T11:23:50.786Z,71.89
2022-09-16T11:26:25.784Z,71.93
2022-09-16T11:29:27.239Z,72.44
2022-09-16T11:32:04.002Z,71.98
2022-09-16T11:34:44.607Z,72.53
2022-09-16T11:37:21.357Z,72.87
2022-09-16T11:40:02.896Z,73.49
2022-09-16T11:42:36.179Z,73.34
2022-09-16T11:45:17.837Z,72.82
2022-09-16T11:47:59.139Z,72.05
2022-09-16T11:50:45.594Z,71.33
2022-09-16T11:53:46.621Z,71.19
2022-09-16T11:56:20.529Z,70.95
2022-09-16T11:58:52.300Z,70.73
2022-09-16T12:01:30.202Z,70.97
2022-09-16T12:04:07.866Z,70.98
2022-09-16T12:06:41.991Z,71.90
2022-09-16T12:09:15.758Z,72.41
2022-09-16T12:11:49.319Z,71.68
2022-09-16T12:14:22.527Z,71.77
2022-09-16T12:16:55.020Z,71.14
2022-09-16T12:19:28.424Z,70.69
2022-09-16T12:22:03.760Z,71.44
2022-09-16T12:24:39.517Z,70.82
2022-09-16T12:27:31.644Z,70.19
2022-09-16T12:30:03.152Z,70.42
2022-09-16T12:32:38.687Z,70.87
2022-09-16T12:35:14.454Z,71.43
2022-09-16T12:37:48.358Z,71.51
2022-09-16T12:40:19.668Z,71.60
2022-09-16T12:43:23.624Z,71.91
2022-09-16T12:46:16.057Z,71.17
2022-09-16T12:49:03.262Z,71.14
2022-09-16T12:51:50.228Z,70.46
2022-09-16T12:55:04.390Z,70.38
2022-09-16T12:57:45.684Z,70.83
2022-09-16T13:00:18.985Z,71.08
2022-09-16T13:02:51.911Z,71.52
2022-09-16T13:05:26.248Z,72.04
2022-09-16T13:07:58.888Z,71.63
2022-09-16T13:10:53.923Z,70.66
2022-09-16T13:13:31.780Z,70.55
2022-09-16T13:16:01.631Z,69.59
2022-09-16T13:18:43.053Z,70.28
2022-09-16T13:21:23.253Z,70.71
2022-09-16T13:24:01.804Z,71.07
2022-09-16T13:26:40.880Z,70.57
2022-09-16T13:29:39.814Z,70.66
2022-09-16T13:32:25.943Z,69.72
2022-09-16T13:35:04.650Z,69.46
2022-09-16T13:37:32.350Z,69.22
2022-09-16T13:40:10.647Z,69.80
2022-09-16T13:42:38.270Z,70.10
2022-09-16T13:45:33.762Z,69.98
2022-09-16T13:48:07.437Z,68.51
2022-09-16T13:50:37.265Z,67.52
2022-09-16T13:53:11.142Z,68.82
2022-09-16T13:55:41.424Z,69.19
2022-09-16T13:58:21.771Z,66.84
2022-09-16T14:01:05.724Z,65.87
2022-09-16T14:03:56.300Z,65.13
2022-09-16T14:06:45.444Z,65.11
2022-09-16T14:09:27.236Z,66.10
2022-09-16T14:12:03.866Z,66.55
2022-09-16T14:14:49.846Z,66.48
2022-09-16T14:17:21.721Z,67.04
2022-09-16T14:19:51.347Z,67.42
2022-09-16T14:22:23.047Z,67.37
2022-09-16T14:25:00.554Z,68.14
2022-09-16T14:27:39.362Z,68.33
2022-09-16T14:30:14.825Z,68.91
2022-09-16T14:32:42.810Z,70.28
2022-09-16T14:35:13.455Z,70.62
2022-09-16T14:37:46.419Z,70.53
2022-09-16T14:40:16.646Z,69.63
2022-09-16T14:42:49.825Z,69.90
2022-09-16T14:45:18.121Z,69.60
2022-09-16T14:47:51.639Z,70.34
2022-09-16T14:50:23.294Z,69.69
2022-09-16T14:52:57.631Z,69.96
2022-09-16T14:55:30.062Z,70.26
2022-09-16T14:57:58.222Z,69.98
2022-09-16T15:00:28.478Z,69.83
2022-09-16T15:03:01.024Z,69.74
2022-09-16T15:05:33.883Z,69.96
2022-09-16T15:08:14.937Z,70.25
2022-09-16T15:10:55.255Z,69.11
2022-09-16T15:13:27.783Z,69.26
2022-09-16T15:15:58.885Z,69.26
2022-09-16T15:18:29.554Z,69.61
2022-09-16T15:21:04.578Z,68.69
2022-09-16T15:23:34.588Z,69.57
2022-09-16T15:26:12.602Z,70.23
2022-09-16T15:28:52.279Z,70.55
2022-09-16T15:31:28.284Z,70.47
2022-09-16T15:33:58.085Z,70.41
2022-09-16T15:36:40.117Z,70.94
2022-09-16T15:39:24.385Z,71.26
2022-09-16T15:42:06.049Z,70.99
2022-09-16T15:44:37.321Z,71.66
2022-09-16T15:47:05.858Z,73.35
2022-09-16T15:49:39.293Z,71.96
2022-09-16T15:52:11.552Z,71.96
2022-09-16T15:54:49.735Z,71.93
2022-09-16T15:57:30.544Z,71.74
2022-09-16T16:00:10.886Z,71.96
2022-09-16T16:02:44.651Z,71.74
2022-09-16T16:05:15.260Z,71.23
2022-09-16T16:07:45.751Z,71.70
2022-09-16T16:10:20.346Z,71.88
2022-09-16T16:12:49.352Z,71.76
2022-09-16T16:15:18.580Z,71.98
2022-09-16T16:17:47.493Z,72.00
2022-09-16T16:20:16.966Z,71.71
2022-09-16T16:22:45.350Z,71.88
2022-09-16T16:25:14.079Z,71.59
2022-09-16T16:27:43.009Z,71.61
2022-09-16T16:30:11.972Z,71.29
2022-09-16T16:32:40.005Z,72.09
2022-09-16T16:35:08.517Z,72.85
2022-09-16T16:37:51.970Z,72.75
2022-09-16T16:40:19.846Z,72.83
2022-09-16T16:42:48.896Z,73.33
2022-09-16T16:45:16.823Z,73.11
2022-09-16T16:47:46.268Z,73.52
2022-09-16T16:50:14.698Z,72.89
2022-09-16T16:52:42.416Z,73.75
2022-09-16T16:55:10.791Z,73.17
2022-09-16T16:57:38.496Z,73.40
2022-09-16T17:00:08.820Z,72.86
2022-09-16T17:02:36.634Z,72.50
2022-09-16T17:05:04.398Z,72.78
2022-09-16T17:07:31.997Z,72.69
2022-09-16T17:09:59.649Z,72.69
2022-09-16T17:12:27.917Z,72.95
2022-09-16T17:14:55.563Z,73.00
2022-09-16T17:17:29.114Z,72.46
2022-09-16T17:19:59.122Z,72.32
2022-09-16T17:22:26.753Z,72.03
2022-09-16T17:24:54.471Z,72.63
2022-09-16T17:27:24.820Z,72.24
2022-09-16T17:29:52.495Z,72.67
2022-09-16T17:32:20.535Z,72.47
2022-09-16T17:34:49.524Z,72.40
2022-09-16T17:37:19.928Z,71.85
2022-09-16T17:39:48.576Z,72.13
2022-09-16T17:42:16.236Z,71.97
2022-09-16T17:44:43.976Z,71.94
2022-09-16T17:47:11.919Z,72.57
2022-09-16T17:49:39.503Z,72.54
2022-09-16T17:52:08.850Z,72.79
2022-09-16T17:54:36.600Z,73.26
2022-09-16T17:57:04.270Z,73.37
2022-09-16T17:59:32.065Z,73.34
2022-09-16T18:02:00.094Z,73.33
2022-09-16T18:04:27.668Z,73.20
2022-09-16T18:06:55.321Z,73.01
2022-09-16T18:09:24.399Z,73.20
2022-09-16T18:11:52.133Z,73.19
2022-09-16T18:14:23.248Z,72.75
2022-09-16T18:16:51.458Z,72.24
2022-09-16T18:19:19.165Z,72.58
2022-09-16T18:21:47.037Z,73.21
2022-09-16T18:24:15.856Z,73.86
2022-09-16T18:26:45.225Z,73.85
2022-09-16T18:29:14.233Z,73.69
2022-09-16T18:31:43.826Z,73.50
2022-09-16T18:34:12.372Z,72.79
2022-09-16T18:36:40.360Z,73.18
2022-09-16T18:39:11.647Z,73.11
2022-09-16T18:41:41.352Z,73.07
2022-09-16T18:44:13.873Z,72.72
2022-09-16T18:46:41.735Z,72.88
2022-09-16T18:49:12.513Z,72.90
2022-09-16T18:51:41.786Z,73.00
2022-09-16T18:54:13.227Z,72.65
2022-09-16T18:56:42.360Z,73.40
2022-09-16T18:59:21.511Z,73.93
2022-09-16T19:01:52.011Z,74.40
2022-09-16T19:04:21.748Z,74.04
2022-09-16T19:06:51.877Z,73.79
2022-09-16T19:09:22.573Z,74.25
2022-09-16T19:11:52.352Z,74.60
2022-09-16T19:14:24.294Z,74.47
2022-09-16T19:16:52.120Z,74.45
2022-09-16T19:19:20.505Z,74.54
2022-09-16T19:21:48.577Z,74.81
2022-09-16T19:24:18.480Z,74.85
2022-09-16T19:26:48.030Z,74.80
2022-09-16T19:29:16.952Z,74.84
2022-09-16T19:31:47.711Z,74.62
2022-09-16T19:34:16.914Z,74.63
2022-09-16T19:36:45.112Z,74.96
2022-09-16T19:39:14.508Z,74.64
2022-09-16T19:41:42.930Z,74.58
2022-09-16T19:44:13.900Z,74.21
2022-09-16T19:46:42.714Z,74.34
2022-09-16T19:49:17.682Z,74.02
2022-09-16T19:51:45.433Z,74.64
2022-09-16T19:54:13.559Z,74.19
2022-09-16T19:56:41.182Z,74.26
2022-09-16T19:59:09.400Z,74.10
2022-09-16T20:01:38.349Z,74.13
2022-09-16T20:04:08.505Z,73.43
2022-09-16T20:06:39.310Z,73.41
2022-09-16T20:09:09.084Z,73.74
2022-09-16T20:11:41.652Z,73.18
2022-09-16T20:14:13.547Z,72.97
2022-09-16T20:16:41.381Z,73.00
2022-09-16T20:19:12.092Z,72.52
2022-09-16T20:21:41.336Z,72.57
2022-09-16T20:24:14.672Z,72.29
2022-09-16T20:26:42.334Z,72.41
2022-09-16T20:29:09.944Z,72.75
2022-09-16T20:31:38.295Z,72.25
2022-09-16T20:34:06.895Z,72.59
2022-09-16T20:36:38.865Z,72.07
2022-09-16T20:39:10.423Z,72.09
2022-09-16T20:41:39.673Z,72.80
2022-09-16T20:44:07.696Z,72.64
2022-09-16T20:46:36.965Z,73.67
2022-09-16T20:49:09.350Z,73.64
2022-09-16T20:51:37.668Z,73.86
2022-09-16T20:54:09.250Z,74.05
2022-09-16T20:56:40.588Z,73.67
2022-09-16T20:59:09.779Z,73.89
2022-09-16T21:01:38.925Z,73.77
2022-09-16T21:04:08.530Z,73.58
2022-09-16T21:06:37.292Z,73.25
2022-09-16T21:09:10.183Z,73.40
2022-09-16T21:11:40.752Z,73.84
2022-09-16T21:14:08.558Z,73.91
2022-09-16T21:16:38.077Z,73.56
2022-09-16T21:19:09.242Z,73.64
2022-09-16T21:21:38.243Z,74.18
2022-09-16T21:24:08.614Z,74.42
2022-09-16T21:26:38.463Z,74.55
2022-09-16T21:29:09.777Z,74.08
2022-09-16T21:31:39.164Z,74.21
2022-09-16T21:34:07.986Z,74.21
2022-09-16T21:36:37.627Z,74.06
2022-09-16T21:39:05.283Z,74.16
2022-09-16T21:41:34.610Z,74.53
2022-09-16T21:44:03.830Z,75.63
2022-09-16T21:46:33.661Z,76.46
2022-09-16T21:49:03.158Z,76.52
2022-09-16T21:51:35.113Z,76.33
2022-09-16T21:54:03.531Z,76.07
2022-09-16T21:56:32.040Z,75.51
2022-09-16T21:59:01.182Z,75.83
2022-09-16T22:01:33.566Z,76.45
2022-09-16T22:04:03.393Z,76.22
2022-09-16T22:06:31.515Z,76.31
2022-09-16T22:09:01.610Z,75.91
2022-09-16T22:11:31.313Z,75.92
2022-09-16T22:14:01.481Z,75.40
2022-09-16T22:16:31.128Z,75.86
2022-09-16T22:19:00.606Z,75.97
2022-09-16T22:21:31.204Z,76.07
2022-09-16T22:24:02.918Z,75.53
2022-09-16T22:26:31.749Z,75.87
2022-09-16T22:29:01.079Z,75.37
2022-09-16T22:31:30.452Z,75.97
2022-09-16T22:34:00.409Z,76.21
2022-09-16T22:36:31.003Z,75.76
2022-09-16T22:39:01.755Z,75.02
2022-09-16T22:41:30.453Z,74.51
2022-09-16T22:43:58.190Z,74.37
2022-09-16T22:46:29.346Z,74.49
2022-09-16T22:48:58.471Z,74.50
2022-09-16T22:51:27.019Z,73.62
2022-09-16T22:53:55.607Z,73.33
2022-09-16T22:56:25.876Z,72.86
2022-09-16T22:58:54.848Z,72.81
2022-09-16T23:01:24.790Z,72.79
2022-09-16T23:03:56.354Z,72.62
2022-09-16T23:06:25.311Z,72.72
2022-09-16T23:08:53.679Z,73.46
2022-09-16T23:11:25.855Z,73.47
2022-09-16T23:13:54.119Z,74.16
2022-09-16T23:16:23.982Z,74.66
2022-09-16T23:18:51.743Z,74.36
2022-09-16T23:21:23.219Z,74.23
2022-09-16T23:23:52.540Z,74.16
2022-09-16T23:26:22.181Z,73.95
2022-09-16T23:28:53.087Z,73.92
2022-09-16T23:31:22.513Z,73.59
2022-09-16T23:33:50.369Z,73.51
2022-09-16T23:36:20.277Z,73.55
2022-09-16T23:38:48.239Z,73.62
2022-09-16T23:41:18.386Z,73.18
2022-09-16T23:43:46.658Z,72.93
2022-09-16T23:46:16.207Z,73.47
2022-09-16T23:48:45.205Z,73.10
2022-09-16T23:51:13.962Z,73.19
2022-09-16T23:53:43.187Z,73.44
2022-09-16T23:56:13.437Z,72.89
2022-09-16T23:58:42.207Z,73.04
